createdAt,value
2022-10-04T00:01:26.197Z,3.03
2022-10-04T00:04:02.971Z,3.00
2022-10-04T00:06:30.298Z,3.47
2022-10-04T00:09:02.249Z,3.20
2022-10-04T00:11:31.015Z,3.40
2022-10-04T00:13:59.154Z,3.25
2022-10-04T00:16:31.308Z,3.45
2022-10-04T00:19:03.729Z,2.50
2022-10-04T00:21:49.607Z,2.85
2022-10-04T00:24:24.070Z,2.90
2022-10-04T00:26:51.134Z,2.72
2022-10-04T00:29:29.911Z,2.95
2022-10-04T00:32:09.143Z,2.92
2022-10-04T00:34:36.228Z,2.47
2022-10-04T00:37:04.376Z,2.70
2022-10-04T00:39:39.228Z,3.10
2022-10-04T00:42:12.448Z,3.03
2022-10-04T00:44:42.079Z,3.35
2022-10-04T00:47:31.644Z,2.72
2022-10-04T00:50:07.827Z,2.72
2022-10-04T00:52:37.445Z,2.28
2022-10-04T00:55:06.935Z,2.90
2022-10-04T00:57:37.034Z,2.50
2022-10-04T01:00:09.287Z,2.83
2022-10-04T01:02:55.019Z,2.80
2022-10-04T01:05:27.268Z,2.35
2022-10-04T01:08:09.888Z,2.33
2022-10-04T01:10:43.349Z,2.30
2022-10-04T01:13:14.937Z,2.40
2022-10-04T01:15:51.181Z,2.30
2022-10-04T01:18:21.382Z,2.80
2022-10-04T01:21:07.422Z,2.88
2022-10-04T01:23:37.780Z,2.35
2022-10-04T01:26:32.272Z,2.67
2022-10-04T01:29:11.716Z,2.90
2022-10-04T01:31:41.422Z,2.95
2022-10-04T01:34:09.007Z,3.10
2022-10-04T01:36:37.095Z,2.83
2022-10-04T01:39:05.226Z,2.20
2022-10-04T01:41:39.383Z,2.60
2022-10-04T01:44:08.309Z,2.20
2022-10-04T01:46:36.959Z,3.10
2022-10-04T01:49:05.792Z,3.08
2022-10-04T01:51:35.253Z,2.90
2022-10-04T01:54:11.072Z,2.55
2022-10-04T01:57:04.533Z,2.65
2022-10-04T01:59:35.085Z,2.20
2022-10-04T02:02:08.891Z,2.28
2022-10-04T02:04:38.737Z,2.53
2022-10-04T02:07:11.769Z,2.47
2022-10-04T02:09:42.578Z,2.47
2022-10-04T02:12:09.952Z,2.55
2022-10-04T02:14:37.366Z,2.63
2022-10-04T02:17:10.512Z,2.35
2022-10-04T02:19:39.833Z,2.80
2022-10-04T02:22:09.118Z,2.47
2022-10-04T02:24:38.119Z,3.10
2022-10-04T02:27:06.314Z,2.63
2022-10-04T02:29:33.621Z,2.97
2022-10-04T02:32:19.660Z,2.78
2022-10-04T02:34:48.353Z,2.50
2022-10-04T02:37:15.629Z,3.00
2022-10-04T02:39:48.884Z,2.42
2022-10-04T02:42:34.663Z,2.55
2022-10-04T02:45:06.911Z,2.78
2022-10-04T02:47:48.466Z,2.70
2022-10-04T02:50:24.833Z,2.42
2022-10-04T02:52:55.867Z,2.63
2022-10-04T02:55:28.129Z,3.20
2022-10-04T02:57:55.819Z,4.05
2022-10-04T03:00:24.851Z,6.45
2022-10-04T03:03:21.597Z,13.93
2022-10-04T03:05:54.852Z,5.55
2022-10-04T03:08:22.257Z,5.03
2022-10-04T03:10:50.797Z,8.38
2022-10-04T03:13:19.196Z,12.07
2022-10-04T03:15:48.994Z,10.73
2022-10-04T03:18:16.291Z,13.65
2022-10-04T03:20:43.771Z,14.27
2022-10-04T03:23:12.802Z,15.95
2022-10-04T03:25:52.259Z,13.45
2022-10-04T03:28:22.007Z,10.02
2022-10-04T03:30:49.516Z,9.40
2022-10-04T03:33:20.928Z,9.00
2022-10-04T03:35:50.039Z,5.35
2022-10-04T03:38:18.231Z,5.93
2022-10-04T03:40:51.610Z,6.30
2022-10-04T03:43:19.217Z,3.95
2022-10-04T03:45:46.879Z,3.78
2022-10-04T03:48:15.626Z,7.85
2022-10-04T03:50:47.564Z,7.45
2022-10-04T03:53:43.133Z,7.32
2022-10-04T03:56:26.121Z,6.88
2022-10-04T03:58:53.428Z,4.55
2022-10-04T04:01:26.700Z,6.45
2022-10-04T04:03:53.998Z,5.70
2022-10-04T04:06:21.816Z,5.28
2022-10-04T04:08:51.817Z,4.22
2022-10-04T04:11:22.626Z,4.45
2022-10-04T04:13:52.769Z,4.10
2022-10-04T04:16:26.431Z,3.65
2022-10-04T04:18:54.803Z,3.80
2022-10-04T04:21:26.110Z,4.18
2022-10-04T04:23:59.471Z,4.50
2022-10-04T04:26:28.900Z,5.00
2022-10-04T04:28:59.029Z,4.45
2022-10-04T04:31:28.111Z,4.10
2022-10-04T04:34:00.728Z,4.57
2022-10-04T04:36:32.474Z,4.10
2022-10-04T04:39:37.106Z,4.57
2022-10-04T04:42:07.028Z,4.72
2022-10-04T04:44:34.251Z,4.20
2022-10-04T04:47:01.386Z,4.82
2022-10-04T04:49:30.167Z,4.35
2022-10-04T04:51:58.131Z,4.47
2022-10-04T04:54:26.581Z,5.10
2022-10-04T04:56:54.826Z,5.03
2022-10-04T04:59:23.298Z,4.82
2022-10-04T05:01:50.579Z,5.22
2022-10-04T05:04:19.689Z,5.10
2022-10-04T05:06:49.010Z,3.80
2022-10-04T05:09:35.821Z,4.82
2022-10-04T05:12:07.808Z,4.72
2022-10-04T05:14:35.959Z,4.50
2022-10-04T05:17:03.084Z,3.63
2022-10-04T05:19:31.946Z,3.72
2022-10-04T05:22:00.420Z,4.13
2022-10-04T05:24:32.109Z,4.03
2022-10-04T05:27:19.473Z,3.75
2022-10-04T05:30:05.775Z,5.55
2022-10-04T05:32:48.235Z,4.22
2022-10-04T05:35:20.073Z,3.28
2022-10-04T05:37:53.363Z,4.15
2022-10-04T05:40:27.298Z,4.38
2022-10-04T05:42:55.313Z,4.18
2022-10-04T05:45:25.038Z,4.68
2022-10-04T05:47:53.800Z,4.40
2022-10-04T05:50:29.793Z,4.25
2022-10-04T05:53:09.230Z,3.83
2022-10-04T05:55:51.102Z,4.50
2022-10-04T05:58:21.284Z,5.00
2022-10-04T06:01:10.560Z,4.30
2022-10-04T06:03:38.506Z,4.75
2022-10-04T06:06:06.133Z,4.35
2022-10-04T06:08:42.517Z,4.93
2022-10-04T06:11:18.339Z,5.43
2022-10-04T06:14:04.207Z,4.15
2022-10-04T06:16:40.461Z,5.75
2022-10-04T06:19:17.379Z,4.28
2022-10-04T06:22:01.799Z,4.78
2022-10-04T06:24:30.864Z,4.70
2022-10-04T06:27:03.254Z,5.80
2022-10-04T06:29:32.805Z,8.38
2022-10-04T06:32:02.958Z,11.40
2022-10-04T06:34:42.157Z,12.85
2022-10-04T06:37:12.286Z,7.78
2022-10-04T06:39:45.552Z,3.63
2022-10-04T06:42:12.650Z,3.20
2022-10-04T06:44:49.416Z,4.70
2022-10-04T06:47:31.167Z,5.88
2022-10-04T06:50:14.347Z,4.15
2022-10-04T06:52:47.624Z,6.70
2022-10-04T06:55:20.992Z,3.00
2022-10-04T06:58:09.527Z,3.63
2022-10-04T07:00:42.140Z,3.88
2022-10-04T07:03:23.743Z,3.30
2022-10-04T07:06:07.853Z,3.90
2022-10-04T07:08:40.372Z,6.70
2022-10-04T07:11:16.490Z,4.93
2022-10-04T07:13:43.612Z,4.15
2022-10-04T07:16:23.901Z,9.07
2022-10-04T07:19:05.370Z,6.13
2022-10-04T07:21:56.028Z,14.98
2022-10-04T07:24:32.686Z,4.88
2022-10-04T07:27:02.377Z,16.70
2022-10-04T07:29:32.910Z,11.50
2022-10-04T07:32:06.073Z,6.97
2022-10-04T07:34:47.481Z,3.08
2022-10-04T07:37:15.129Z,2.75
2022-10-04T07:39:53.186Z,2.97
2022-10-04T07:42:24.682Z,1.88
2022-10-04T07:45:06.069Z,2.42
2022-10-04T07:47:33.405Z,2.20
2022-10-04T07:50:00.611Z,16.05
2022-10-04T07:52:33.640Z,4.55
2022-10-04T07:55:06.961Z,3.00
2022-10-04T07:57:45.023Z,3.53
2022-10-04T08:00:16.562Z,2.92
2022-10-04T08:02:55.919Z,4.15
2022-10-04T08:05:37.611Z,3.60
2022-10-04T08:08:07.842Z,3.95
2022-10-04T08:10:35.510Z,3.13
2022-10-04T08:13:07.772Z,2.63
2022-10-04T08:15:35.149Z,2.88
2022-10-04T08:18:05.232Z,2.90
2022-10-04T08:20:45.630Z,2.13
2022-10-04T08:23:39.977Z,2.15
2022-10-04T08:26:16.174Z,2.10
2022-10-04T08:29:10.968Z,1.85
2022-10-04T08:31:41.834Z,2.55
2022-10-04T08:34:27.234Z,1.77
2022-10-04T08:36:59.460Z,2.58
2022-10-04T08:39:26.516Z,1.90
2022-10-04T08:42:04.771Z,2.40
2022-10-04T08:44:31.845Z,2.35
2022-10-04T08:47:09.088Z,2.53
2022-10-04T08:49:54.922Z,2.85
2022-10-04T08:52:22.292Z,2.55
2022-10-04T08:54:49.391Z,2.72
2022-10-04T08:57:30.182Z,2.88
2022-10-04T09:00:07.534Z,2.50
2022-10-04T09:02:53.996Z,2.58
2022-10-04T09:05:39.508Z,3.38
2022-10-04T09:08:15.771Z,6.55
2022-10-04T09:10:48.664Z,3.10
2022-10-04T09:13:31.571Z,6.30
2022-10-04T09:16:17.686Z,2.90
2022-10-04T09:18:54.344Z,2.22
2022-10-04T09:21:33.697Z,2.90
2022-10-04T09:24:19.686Z,5.10
2022-10-04T09:26:52.564Z,6.70
2022-10-04T09:29:31.736Z,4.35
2022-10-04T09:32:17.539Z,1.90
2022-10-04T09:34:47.624Z,2.63
2022-10-04T09:37:17.565Z,2.25
2022-10-04T09:39:59.296Z,5.80
2022-10-04T09:42:33.650Z,2.10
2022-10-04T09:45:07.512Z,4.43
2022-10-04T09:47:45.416Z,4.25
2022-10-04T09:50:27.045Z,3.47
2022-10-04T09:53:03.263Z,1.80
2022-10-04T09:55:33.572Z,4.90
2022-10-04T09:58:15.042Z,2.25
2022-10-04T10:01:11.560Z,1.30
2022-10-04T10:03:42.204Z,0.95
2022-10-04T10:06:15.071Z,1.27
2022-10-04T10:08:54.258Z,0.70
2022-10-04T10:11:46.391Z,0.90
2022-10-04T10:14:32.222Z,1.00
2022-10-04T10:17:37.955Z,0.90
2022-10-04T10:20:20.688Z,0.88
2022-10-04T10:22:53.926Z,0.95
2022-10-04T10:25:41.082Z,0.93
2022-10-04T10:28:29.258Z,0.80
2022-10-04T10:30:56.405Z,0.95
2022-10-04T10:33:42.553Z,0.90
2022-10-04T10:36:34.087Z,0.80
2022-10-04T10:39:16.028Z,0.70
2022-10-04T10:42:07.758Z,0.60
2022-10-04T10:44:48.143Z,0.70
2022-10-04T10:47:35.543Z,0.65
2022-10-04T10:50:27.611Z,0.80
2022-10-04T10:53:12.743Z,0.82
2022-10-04T10:55:49.222Z,2.03
2022-10-04T10:58:35.493Z,1.60
2022-10-04T11:01:21.323Z,0.77
2022-10-04T11:04:03.292Z,0.70
2022-10-04T11:06:38.390Z,0.82
2022-10-04T11:09:05.548Z,0.70
2022-10-04T11:11:43.981Z,0.80
2022-10-04T11:14:33.310Z,0.98
2022-10-04T11:17:00.734Z,0.73
2022-10-04T11:19:44.341Z,0.90
2022-10-04T11:22:47.067Z,0.65
2022-10-04T11:25:16.764Z,0.93
2022-10-04T11:28:03.432Z,0.63
2022-10-04T11:30:51.576Z,0.70
2022-10-04T11:33:21.885Z,1.00
2022-10-04T11:35:55.607Z,1.20
2022-10-04T11:38:28.676Z,1.05
2022-10-04T11:41:34.549Z,0.70
2022-10-04T11:44:04.482Z,0.70
2022-10-04T11:46:36.226Z,0.82
2022-10-04T11:49:22.152Z,0.68
2022-10-04T11:52:02.089Z,0.60
2022-10-04T11:54:48.265Z,0.70
2022-10-04T11:57:37.343Z,1.10
2022-10-04T12:00:16.127Z,0.80
2022-10-04T12:03:05.176Z,0.70
2022-10-04T12:05:51.192Z,0.77
2022-10-04T12:08:21.369Z,0.98
2022-10-04T12:11:11.937Z,0.80
2022-10-04T12:13:51.354Z,0.88
2022-10-04T12:16:43.878Z,1.10
2022-10-04T12:19:15.512Z,1.20
2022-10-04T12:21:51.936Z,1.25
2022-10-04T12:24:39.337Z,0.98
2022-10-04T12:27:21.562Z,1.20
2022-10-04T12:30:07.651Z,1.13
2022-10-04T12:32:45.370Z,1.00
2022-10-04T12:35:15.354Z,0.82
2022-10-04T12:37:50.316Z,1.63
2022-10-04T12:40:18.157Z,1.25
2022-10-04T12:43:04.918Z,1.13
2022-10-04T12:45:56.519Z,1.10
2022-10-04T12:48:38.987Z,1.17
2022-10-04T12:51:09.127Z,1.20
2022-10-04T12:53:36.310Z,1.00
2022-10-04T12:56:08.187Z,1.08
2022-10-04T12:58:46.740Z,1.30
2022-10-04T13:01:18.377Z,1.00
2022-10-04T13:04:04.872Z,1.60
2022-10-04T13:06:43.439Z,1.25
2022-10-04T13:09:13.668Z,1.15
2022-10-04T13:11:52.309Z,1.35
2022-10-04T13:14:22.920Z,1.13
2022-10-04T13:19:50.293Z,0.93
2022-10-04T13:22:44.034Z,1.30
2022-10-04T13:25:32.591Z,1.52
2022-10-04T13:27:59.772Z,1.10
2022-10-04T13:30:47.237Z,0.98
2022-10-04T13:33:37.618Z,1.50
2022-10-04T13:36:23.378Z,1.35
2022-10-04T13:38:50.596Z,1.25
2022-10-04T13:41:36.528Z,1.30
2022-10-04T13:44:17.978Z,1.33
2022-10-04T13:47:04.959Z,1.42
2022-10-04T13:49:44.895Z,1.10
2022-10-04T13:52:37.978Z,1.38
2022-10-04T13:55:52.575Z,1.50
2022-10-04T13:58:28.892Z,1.98
2022-10-04T14:01:15.499Z,1.35
2022-10-04T14:03:53.886Z,1.67
2022-10-04T14:06:39.700Z,1.33
2022-10-04T14:09:22.487Z,1.23
2022-10-04T14:11:58.519Z,1.40
2022-10-04T14:14:44.420Z,1.42
2022-10-04T14:19:47.439Z,1.08
2022-10-04T14:22:37.560Z,1.10
2022-10-04T14:25:05.726Z,1.17
2022-10-04T14:27:32.863Z,1.30
2022-10-04T14:30:12.771Z,1.20
2022-10-04T14:32:52.316Z,1.20
2022-10-04T14:35:35.122Z,1.13
2022-10-04T14:38:13.218Z,1.48
2022-10-04T14:40:59.113Z,1.40
2022-10-04T14:43:44.736Z,1.30
2022-10-04T14:46:17.996Z,1.33
2022-10-04T14:49:04.770Z,1.13
2022-10-04T14:51:59.490Z,1.23
2022-10-04T14:54:38.433Z,1.70
2022-10-04T14:57:12.563Z,1.50
2022-10-04T14:59:39.827Z,1.48
2022-10-04T15:02:25.868Z,1.60
2022-10-04T15:05:12.029Z,1.30
2022-10-04T15:07:40.699Z,1.58
2022-10-04T15:10:07.784Z,1.23
2022-10-04T15:13:10.013Z,1.30
2022-10-04T15:15:43.123Z,1.30
2022-10-04T15:18:22.817Z,1.40
2022-10-04T15:20:49.912Z,1.50
2022-10-04T15:23:29.485Z,1.38
2022-10-04T15:26:19.947Z,1.10
2022-10-04T15:28:50.233Z,1.50
2022-10-04T15:31:26.668Z,1.77
2022-10-04T15:33:57.085Z,1.30
2022-10-04T15:36:48.701Z,1.58
2022-10-04T15:39:40.259Z,1.20
2022-10-04T15:42:13.245Z,1.20
2022-10-04T15:44:57.038Z,1.30
2022-10-04T15:47:26.204Z,1.05
2022-10-04T15:49:57.889Z,1.45
2022-10-04T15:52:44.167Z,1.52
2022-10-04T15:55:23.381Z,1.10
2022-10-04T15:57:56.752Z,1.25
2022-10-04T16:00:28.898Z,1.33
2022-10-04T16:03:34.505Z,1.40
2022-10-04T16:06:01.617Z,1.13
2022-10-04T16:08:36.826Z,1.25
2022-10-04T16:11:09.121Z,1.50
2022-10-04T16:13:45.993Z,1.50
2022-10-04T16:16:16.205Z,1.20
2022-10-04T16:18:49.453Z,1.70
2022-10-04T16:21:28.952Z,1.33
2022-10-04T16:24:14.623Z,1.40
2022-10-04T16:26:44.965Z,1.17
2022-10-04T16:29:12.329Z,1.40
2022-10-04T16:31:46.403Z,1.63
2022-10-04T16:34:22.798Z,1.50
2022-10-04T16:36:50.027Z,1.45
2022-10-04T16:39:53.230Z,2.30
2022-10-04T16:42:23.685Z,1.85
2022-10-04T16:44:50.892Z,1.90
2022-10-04T16:47:24.335Z,2.15
2022-10-04T16:49:55.045Z,2.97
2022-10-04T16:52:41.739Z,3.28
2022-10-04T16:55:21.913Z,3.72
2022-10-04T16:58:08.950Z,3.65
2022-10-04T17:00:38.451Z,3.85
2022-10-04T17:03:10.860Z,4.20
2022-10-04T17:05:40.950Z,3.90
2022-10-04T17:08:21.339Z,5.80
2022-10-04T17:10:54.532Z,3.90
2022-10-04T17:13:27.881Z,6.13
2022-10-04T17:16:13.975Z,6.63
2022-10-04T17:18:44.679Z,5.13
2022-10-04T17:21:17.356Z,4.32
2022-10-04T17:23:44.454Z,6.87
2022-10-04T17:26:26.699Z,13.45
2022-10-04T17:28:56.715Z,5.13
2022-10-04T17:31:45.089Z,9.32
2022-10-04T17:34:21.766Z,6.35
2022-10-04T17:36:51.465Z,6.68
2022-10-04T17:39:23.655Z,5.57
2022-10-04T17:42:09.551Z,4.55
2022-10-04T17:44:55.525Z,6.75
2022-10-04T17:47:55.852Z,5.35
2022-10-04T17:50:48.132Z,3.92
2022-10-04T17:53:39.936Z,5.15
2022-10-04T17:56:08.349Z,6.63
2022-10-04T17:58:51.640Z,6.30
2022-10-04T18:01:33.218Z,7.03
2022-10-04T18:04:17.374Z,5.50
2022-10-04T18:06:49.705Z,5.38
2022-10-04T18:09:22.984Z,5.45
2022-10-04T18:12:07.578Z,5.20
2022-10-04T18:14:38.069Z,5.85
2022-10-04T18:17:05.967Z,5.45
2022-10-04T18:19:41.816Z,6.30
2022-10-04T18:22:12.813Z,7.45
2022-10-04T18:24:39.958Z,6.15
2022-10-04T18:27:25.926Z,6.88
2022-10-04T18:30:00.600Z,6.15
2022-10-04T18:32:27.736Z,5.97
2022-10-04T18:34:55.768Z,5.20
2022-10-04T18:37:32.729Z,5.20
2022-10-04T18:40:16.636Z,5.63
2022-10-04T18:45:31.332Z,4.20
2022-10-04T18:48:00.423Z,7.55
2022-10-04T18:50:33.403Z,7.35
2022-10-04T18:53:03.536Z,10.93
2022-10-04T18:55:39.744Z,11.35
2022-10-04T18:58:37.573Z,8.50
2022-10-04T19:01:42.314Z,7.20
2022-10-04T19:04:17.817Z,6.00
2022-10-04T19:06:48.285Z,5.35
2022-10-04T19:09:15.982Z,5.75
2022-10-04T19:11:43.038Z,5.55
2022-10-04T19:14:31.626Z,5.80
2022-10-04T19:16:58.858Z,7.05
2022-10-04T19:19:38.240Z,8.50
2022-10-04T19:22:17.465Z,8.77
2022-10-04T19:24:50.592Z,7.63
2022-10-04T19:27:30.741Z,8.00
2022-10-04T19:30:15.798Z,7.65
2022-10-04T19:33:01.364Z,7.85
2022-10-04T19:35:28.989Z,8.68
2022-10-04T19:38:02.431Z,7.85
2022-10-04T19:40:36.242Z,7.13
2022-10-04T19:43:03.868Z,7.15
2022-10-04T19:46:02.159Z,8.20
2022-10-04T19:48:33.796Z,7.75
2022-10-04T19:51:09.216Z,7.13
2022-10-04T19:53:40.324Z,7.80
2022-10-04T19:56:09.844Z,6.82
2022-10-04T19:58:39.846Z,6.60
2022-10-04T20:01:13.762Z,6.10
2022-10-04T20:03:40.997Z,6.10
2022-10-04T20:06:08.630Z,5.72
2022-10-04T20:08:49.408Z,6.10
2022-10-04T20:11:22.828Z,5.80
2022-10-04T20:14:10.213Z,6.00
2022-10-04T20:16:50.159Z,5.35
2022-10-04T20:19:30.395Z,5.53
2022-10-04T20:22:18.609Z,5.65
2022-10-04T20:24:45.695Z,5.20
2022-10-04T20:27:28.653Z,5.30
2022-10-04T20:30:01.803Z,5.73
2022-10-04T20:32:36.758Z,5.55
2022-10-04T20:35:05.986Z,5.80
2022-10-04T20:38:20.351Z,5.93
2022-10-04T20:40:46.886Z,4.70
2022-10-04T20:43:14.027Z,4.88
2022-10-04T20:45:52.947Z,4.35
2022-10-04T20:48:27.254Z,4.80
2022-10-04T20:50:55.053Z,4.25
2022-10-04T20:53:23.580Z,4.90
2022-10-04T20:55:52.440Z,4.90
2022-10-04T20:58:35.084Z,4.65
2022-10-04T21:01:17.238Z,4.55
2022-10-04T21:03:44.571Z,4.10
2022-10-04T21:06:12.118Z,4.50
2022-10-04T21:08:41.096Z,4.28
2022-10-04T21:11:18.364Z,4.28
2022-10-04T21:13:49.936Z,5.00
2022-10-04T21:16:33.552Z,4.35
2022-10-04T21:19:23.695Z,4.28
2022-10-04T21:21:51.330Z,3.80
2022-10-04T21:24:38.895Z,3.97
2022-10-04T21:27:08.796Z,4.47
2022-10-04T21:29:36.120Z,4.60
2022-10-04T21:32:03.443Z,4.30
2022-10-04T21:34:51.958Z,4.82
2022-10-04T21:37:17.881Z,4.60
2022-10-04T21:39:45.422Z,3.55
2022-10-04T21:42:12.869Z,4.63
2022-10-04T21:44:40.011Z,4.85
2022-10-04T21:47:07.234Z,4.82
2022-10-04T21:49:34.480Z,4.72
2022-10-04T21:52:01.915Z,4.50
2022-10-04T21:54:29.131Z,4.97
2022-10-04T21:56:56.276Z,4.93
2022-10-04T21:59:23.402Z,4.85
2022-10-04T22:01:50.509Z,4.22
2022-10-04T22:04:17.803Z,4.55
2022-10-04T22:06:45.329Z,4.18
2022-10-04T22:09:12.749Z,4.97
2022-10-04T22:11:39.954Z,5.45
2022-10-04T22:14:07.126Z,4.82
2022-10-04T22:16:34.269Z,4.85
2022-10-04T22:19:01.412Z,5.30
2022-10-04T22:21:28.551Z,5.00
2022-10-04T22:23:58.329Z,5.22
2022-10-04T22:26:26.745Z,5.47
2022-10-04T22:28:55.047Z,5.68
2022-10-04T22:31:23.520Z,4.68
2022-10-04T22:33:51.106Z,6.05
2022-10-04T22:36:18.177Z,4.75
2022-10-04T22:38:46.461Z,5.30
2022-10-04T22:41:13.917Z,5.40
2022-10-04T22:43:41.119Z,5.78
2022-10-04T22:46:18.462Z,5.10
2022-10-04T22:48:48.825Z,5.60
2022-10-04T22:51:16.257Z,4.85
2022-10-04T22:53:47.922Z,4.20
2022-10-04T22:56:15.351Z,4.90
2022-10-04T22:58:43.223Z,4.72
2022-10-04T23:01:15.017Z,4.53
2022-10-04T23:03:45.357Z,5.00
2022-10-04T23:06:14.336Z,4.00
2022-10-04T23:08:44.634Z,3.63
2022-10-04T23:11:12.288Z,3.50
2022-10-04T23:13:39.810Z,3.20
2022-10-04T23:16:23.613Z,3.22
2022-10-04T23:21:22.969Z,2.55
2022-10-04T23:23:52.833Z,2.75
2022-10-04T23:26:24.852Z,2.47
2022-10-04T23:28:52.415Z,2.42
2022-10-04T23:31:26.871Z,2.58
2022-10-04T23:33:54.573Z,2.42
2022-10-04T23:36:22.150Z,2.92
2022-10-04T23:38:54.885Z,2.08
2022-10-04T23:41:22.066Z,2.30
2022-10-04T23:43:49.668Z,2.40
2022-10-04T23:46:21.029Z,1.92
2022-10-04T23:48:48.780Z,2.10
2022-10-04T23:51:17.622Z,2.13
2022-10-04T23:53:45.516Z,2.20
2022-10-04T23:56:20.897Z,2.10
2022-10-04T23:58:48.776Z,2.40
